sensor_id;sensor_type;location;lat;lon;timestamp;P1;durP1;ratioP1;P2;durP2;ratioP2
59310;SDS011;45078;51.654;21.250;2022-07-23T00:00:20;17.77;;;11.18;;
59310;SDS011;45078;51.654;21.250;2022-07-23T00:02:46;20.42;;;11.45;;
59310;SDS011;45078;51.654;21.250;2022-07-23T00:05:12;18.75;;;11.25;;
59310;SDS011;45078;51.654;21.250;2022-07-23T00:07:38;18.45;;;10.98;;
59310;SDS011;45078;51.654;21.250;2022-07-23T00:10:05;18.42;;;10.38;;
59310;SDS011;45078;51.654;21.250;2022-07-23T00:12:31;16.90;;;10.65;;
59310;SDS011;45078;51.654;21.250;2022-07-23T00:14:57;16.98;;;10.38;;
59310;SDS011;45078;51.654;21.250;2022-07-23T00:17:23;21.05;;;11.05;;
59310;SDS011;45078;51.654;21.250;2022-07-23T00:19:49;16.63;;;10.45;;
59310;SDS011;45078;51.654;21.250;2022-07-23T00:22:15;21.00;;;11.48;;
59310;SDS011;45078;51.654;21.250;2022-07-23T00:24:41;22.00;;;11.50;;
59310;SDS011;45078;51.654;21.250;2022-07-23T00:27:07;18.67;;;11.18;;
59310;SDS011;45078;51.654;21.250;2022-07-23T00:29:33;18.02;;;10.73;;
59310;SDS011;45078;51.654;21.250;2022-07-23T00:31:59;18.08;;;10.68;;
59310;SDS011;45078;51.654;21.250;2022-07-23T00:34:24;16.45;;;10.50;;
59310;SDS011;45078;51.654;21.250;2022-07-23T00:36:50;19.08;;;11.35;;
59310;SDS011;45078;51.654;21.250;2022-07-23T00:39:19;17.48;;;10.70;;
59310;SDS011;45078;51.654;21.250;2022-07-23T00:41:46;23.02;;;11.18;;
59310;SDS011;45078;51.654;21.250;2022-07-23T00:44:15;17.58;;;10.60;;
59310;SDS011;45078;51.654;21.250;2022-07-23T00:46:51;23.88;;;10.45;;
59310;SDS011;45078;51.654;21.250;2022-07-23T00:49:23;19.58;;;11.13;;
59310;SDS011;45078;51.654;21.250;2022-07-23T00:51:50;20.83;;;10.77;;
59310;SDS011;45078;51.654;21.250;2022-07-23T00:54:16;20.27;;;11.18;;
59310;SDS011;45078;51.654;21.250;2022-07-23T00:56:44;17.55;;;10.55;;
59310;SDS011;45078;51.654;21.250;2022-07-23T00:59:10;19.25;;;10.57;;
59310;SDS011;45078;51.654;21.250;2022-07-23T01:01:36;16.42;;;10.02;;
59310;SDS011;45078;51.654;21.250;2022-07-23T01:04:02;18.45;;;9.90;;
59310;SDS011;45078;51.654;21.250;2022-07-23T01:06:28;17.63;;;10.32;;
59310;SDS011;45078;51.654;21.250;2022-07-23T01:08:55;19.60;;;11.43;;
59310;SDS011;45078;51.654;21.250;2022-07-23T01:11:22;16.20;;;9.85;;
59310;SDS011;45078;51.654;21.250;2022-07-23T01:13:49;17.48;;;10.32;;
59310;SDS011;45078;51.654;21.250;2022-07-23T01:16:15;18.95;;;10.32;;
59310;SDS011;45078;51.654;21.250;2022-07-23T01:18:41;14.75;;;9.80;;
59310;SDS011;45078;51.654;21.250;2022-07-23T01:21:08;14.93;;;9.93;;
59310;SDS011;45078;51.654;21.250;2022-07-23T01:23:38;17.23;;;9.70;;
59310;SDS011;45078;51.654;21.250;2022-07-23T01:26:04;16.55;;;10.60;;
59310;SDS011;45078;51.654;21.250;2022-07-23T01:28:30;19.20;;;9.93;;
59310;SDS011;45078;51.654;21.250;2022-07-23T01:30:56;15.65;;;9.68;;
59310;SDS011;45078;51.654;21.250;2022-07-23T01:33:22;17.38;;;9.88;;
59310;SDS011;45078;51.654;21.250;2022-07-23T01:35:48;15.57;;;9.35;;
59310;SDS011;45078;51.654;21.250;2022-07-23T01:38:13;18.30;;;8.80;;
59310;SDS011;45078;51.654;21.250;2022-07-23T01:40:39;18.90;;;10.30;;
59310;SDS011;45078;51.654;21.250;2022-07-23T01:43:05;15.35;;;9.65;;
59310;SDS011;45078;51.654;21.250;2022-07-23T01:45:31;16.67;;;10.27;;
59310;SDS011;45078;51.654;21.250;2022-07-23T01:47:57;15.60;;;8.82;;
59310;SDS011;45078;51.654;21.250;2022-07-23T01:50:23;18.63;;;9.55;;
59310;SDS011;45078;51.654;21.250;2022-07-23T01:52:49;17.52;;;10.02;;
59310;SDS011;45078;51.654;21.250;2022-07-23T01:55:15;18.88;;;10.88;;
59310;SDS011;45078;51.654;21.250;2022-07-23T01:57:40;15.40;;;10.07;;
59310;SDS011;45078;51.654;21.250;2022-07-23T02:00:06;16.50;;;9.63;;
59310;SDS011;45078;51.654;21.250;2022-07-23T02:02:33;14.88;;;9.40;;
59310;SDS011;45078;51.654;21.250;2022-07-23T02:04:59;13.88;;;8.70;;
59310;SDS011;45078;51.654;21.250;2022-07-23T02:07:25;14.57;;;8.40;;
59310;SDS011;45078;51.654;21.250;2022-07-23T02:09:50;14.07;;;8.73;;
59310;SDS011;45078;51.654;21.250;2022-07-23T02:12:16;13.98;;;8.73;;
59310;SDS011;45078;51.654;21.250;2022-07-23T02:14:42;15.98;;;9.50;;
59310;SDS011;45078;51.654;21.250;2022-07-23T02:17:08;18.40;;;10.18;;
59310;SDS011;45078;51.654;21.250;2022-07-23T02:19:34;15.23;;;9.35;;
59310;SDS011;45078;51.654;21.250;2022-07-23T02:22:00;15.80;;;9.13;;
59310;SDS011;45078;51.654;21.250;2022-07-23T02:24:26;20.55;;;10.40;;
59310;SDS011;45078;51.654;21.250;2022-07-23T02:26:52;16.23;;;9.55;;
59310;SDS011;45078;51.654;21.250;2022-07-23T02:29:18;16.65;;;9.90;;
59310;SDS011;45078;51.654;21.250;2022-07-23T02:31:43;15.43;;;8.77;;
59310;SDS011;45078;51.654;21.250;2022-07-23T02:34:09;14.57;;;8.98;;
59310;SDS011;45078;51.654;21.250;2022-07-23T02:39:07;15.90;;;9.75;;
59310;SDS011;45078;51.654;21.250;2022-07-23T02:41:33;16.25;;;9.82;;
59310;SDS011;45078;51.654;21.250;2022-07-23T02:43:58;17.58;;;9.77;;
59310;SDS011;45078;51.654;21.250;2022-07-23T02:46:24;15.05;;;8.93;;
59310;SDS011;45078;51.654;21.250;2022-07-23T02:48:50;14.40;;;9.15;;
59310;SDS011;45078;51.654;21.250;2022-07-23T02:51:16;16.50;;;8.13;;
59310;SDS011;45078;51.654;21.250;2022-07-23T02:53:42;13.82;;;8.68;;
59310;SDS011;45078;51.654;21.250;2022-07-23T02:56:08;15.00;;;9.25;;
59310;SDS011;45078;51.654;21.250;2022-07-23T02:58:34;17.48;;;9.75;;
59310;SDS011;45078;51.654;21.250;2022-07-23T03:01:00;16.05;;;9.55;;
59310;SDS011;45078;51.654;21.250;2022-07-23T03:03:26;15.98;;;9.10;;
59310;SDS011;45078;51.654;21.250;2022-07-23T03:05:55;16.23;;;8.60;;
59310;SDS011;45078;51.654;21.250;2022-07-23T03:08:21;15.00;;;9.50;;
59310;SDS011;45078;51.654;21.250;2022-07-23T03:10:46;15.25;;;9.02;;
59310;SDS011;45078;51.654;21.250;2022-07-23T03:13:12;14.48;;;9.45;;
59310;SDS011;45078;51.654;21.250;2022-07-23T03:15:38;18.95;;;9.68;;
59310;SDS011;45078;51.654;21.250;2022-07-23T03:18:04;14.80;;;9.25;;
59310;SDS011;45078;51.654;21.250;2022-07-23T03:20:30;16.83;;;8.65;;
59310;SDS011;45078;51.654;21.250;2022-07-23T03:22:56;13.50;;;8.55;;
59310;SDS011;45078;51.654;21.250;2022-07-23T03:25:22;15.75;;;8.20;;
59310;SDS011;45078;51.654;21.250;2022-07-23T03:27:47;17.27;;;9.93;;
59310;SDS011;45078;51.654;21.250;2022-07-23T03:30:13;15.77;;;9.80;;
59310;SDS011;45078;51.654;21.250;2022-07-23T03:32:39;15.32;;;9.55;;
59310;SDS011;45078;51.654;21.250;2022-07-23T03:35:05;17.08;;;10.32;;
59310;SDS011;45078;51.654;21.250;2022-07-23T03:37:31;12.43;;;8.18;;
59310;SDS011;45078;51.654;21.250;2022-07-23T03:39:57;16.92;;;8.90;;
59310;SDS011;45078;51.654;21.250;2022-07-23T03:42:23;15.65;;;9.68;;
59310;SDS011;45078;51.654;21.250;2022-07-23T03:44:49;18.15;;;9.45;;
59310;SDS011;45078;51.654;21.250;2022-07-23T03:47:15;18.30;;;9.15;;
59310;SDS011;45078;51.654;21.250;2022-07-23T03:49:42;17.35;;;9.43;;
59310;SDS011;45078;51.654;21.250;2022-07-23T03:52:08;16.20;;;9.98;;
59310;SDS011;45078;51.654;21.250;2022-07-23T03:54:34;16.08;;;9.60;;
59310;SDS011;45078;51.654;21.250;2022-07-23T03:56:59;18.98;;;9.77;;
59310;SDS011;45078;51.654;21.250;2022-07-23T03:59:25;18.13;;;9.70;;
59310;SDS011;45078;51.654;21.250;2022-07-23T04:01:51;17.98;;;10.98;;
59310;SDS011;45078;51.654;21.250;2022-07-23T04:04:17;17.17;;;10.10;;
59310;SDS011;45078;51.654;21.250;2022-07-23T04:06:43;18.42;;;10.70;;
59310;SDS011;45078;51.654;21.250;2022-07-23T04:09:09;19.67;;;10.55;;
59310;SDS011;45078;51.654;21.250;2022-07-23T04:11:34;19.70;;;10.90;;
59310;SDS011;45078;51.654;21.250;2022-07-23T04:14:00;17.55;;;10.25;;
59310;SDS011;45078;51.654;21.250;2022-07-23T04:16:26;25.02;;;10.13;;
59310;SDS011;45078;51.654;21.250;2022-07-23T04:18:53;18.60;;;11.25;;
59310;SDS011;45078;51.654;21.250;2022-07-23T04:21:19;16.88;;;10.18;;
59310;SDS011;45078;51.654;21.250;2022-07-23T04:23:45;19.75;;;11.40;;
59310;SDS011;45078;51.654;21.250;2022-07-23T04:26:11;16.00;;;9.93;;
59310;SDS011;45078;51.654;21.250;2022-07-23T04:28:37;13.85;;;9.63;;
59310;SDS011;45078;51.654;21.250;2022-07-23T04:31:03;19.33;;;10.35;;
59310;SDS011;45078;51.654;21.250;2022-07-23T04:33:29;19.42;;;11.02;;
59310;SDS011;45078;51.654;21.250;2022-07-23T04:35:54;18.25;;;10.38;;
59310;SDS011;45078;51.654;21.250;2022-07-23T04:38:20;17.10;;;10.00;;
59310;SDS011;45078;51.654;21.250;2022-07-23T04:40:46;17.63;;;9.82;;
59310;SDS011;45078;51.654;21.250;2022-07-23T04:43:12;18.67;;;10.13;;
59310;SDS011;45078;51.654;21.250;2022-07-23T04:45:38;16.65;;;9.45;;
59310;SDS011;45078;51.654;21.250;2022-07-23T04:48:04;18.63;;;9.50;;
59310;SDS011;45078;51.654;21.250;2022-07-23T04:50:30;15.90;;;9.85;;
59310;SDS011;45078;51.654;21.250;2022-07-23T04:52:56;15.90;;;9.07;;
59310;SDS011;45078;51.654;21.250;2022-07-23T04:55:22;20.98;;;9.95;;
59310;SDS011;45078;51.654;21.250;2022-07-23T04:57:47;14.50;;;8.85;;
59310;SDS011;45078;51.654;21.250;2022-07-23T05:00:14;17.10;;;9.73;;
59310;SDS011;45078;51.654;21.250;2022-07-23T05:02:40;14.82;;;8.90;;
59310;SDS011;45078;51.654;21.250;2022-07-23T05:05:06;13.13;;;8.55;;
59310;SDS011;45078;51.654;21.250;2022-07-23T05:07:32;15.20;;;8.55;;
59310;SDS011;45078;51.654;21.250;2022-07-23T05:09:58;13.65;;;7.85;;
59310;SDS011;45078;51.654;21.250;2022-07-23T05:12:24;12.75;;;8.00;;
59310;SDS011;45078;51.654;21.250;2022-07-23T05:14:50;13.60;;;8.55;;
59310;SDS011;45078;51.654;21.250;2022-07-23T05:17:16;14.25;;;8.93;;
59310;SDS011;45078;51.654;21.250;2022-07-23T05:19:42;13.90;;;8.30;;
59310;SDS011;45078;51.654;21.250;2022-07-23T05:22:08;13.38;;;7.78;;
59310;SDS011;45078;51.654;21.250;2022-07-23T05:24:34;14.05;;;9.02;;
59310;SDS011;45078;51.654;21.250;2022-07-23T05:27:00;13.82;;;8.30;;
59310;SDS011;45078;51.654;21.250;2022-07-23T05:29:25;11.35;;;7.57;;
59310;SDS011;45078;51.654;21.250;2022-07-23T05:31:51;13.38;;;8.07;;
59310;SDS011;45078;51.654;21.250;2022-07-23T05:34:17;13.50;;;8.45;;
59310;SDS011;45078;51.654;21.250;2022-07-23T05:36:43;12.57;;;8.10;;
59310;SDS011;45078;51.654;21.250;2022-07-23T05:39:09;13.05;;;8.20;;
59310;SDS011;45078;51.654;21.250;2022-07-23T05:41:35;15.45;;;8.23;;
59310;SDS011;45078;51.654;21.250;2022-07-23T05:44:00;11.88;;;7.82;;
59310;SDS011;45078;51.654;21.250;2022-07-23T05:46:26;13.70;;;8.90;;
59310;SDS011;45078;51.654;21.250;2022-07-23T05:48:52;11.32;;;6.68;;
59310;SDS011;45078;51.654;21.250;2022-07-23T05:51:19;9.95;;;6.82;;
59310;SDS011;45078;51.654;21.250;2022-07-23T05:53:46;9.13;;;6.47;;
59310;SDS011;45078;51.654;21.250;2022-07-23T05:56:12;12.45;;;7.65;;
59310;SDS011;45078;51.654;21.250;2022-07-23T05:58:38;13.52;;;7.85;;
59310;SDS011;45078;51.654;21.250;2022-07-23T06:01:03;10.05;;;7.55;;
59310;SDS011;45078;51.654;21.250;2022-07-23T06:03:29;13.93;;;7.97;;
59310;SDS011;45078;51.654;21.250;2022-07-23T06:05:55;12.60;;;8.60;;
59310;SDS011;45078;51.654;21.250;2022-07-23T06:08:21;11.57;;;7.40;;
59310;SDS011;45078;51.654;21.250;2022-07-23T06:10:47;19.40;;;8.52;;
59310;SDS011;45078;51.654;21.250;2022-07-23T06:13:13;11.50;;;7.72;;
59310;SDS011;45078;51.654;21.250;2022-07-23T06:15:39;15.35;;;7.68;;
59310;SDS011;45078;51.654;21.250;2022-07-23T06:18:05;10.13;;;6.32;;
59310;SDS011;45078;51.654;21.250;2022-07-23T06:20:31;9.82;;;6.25;;
59310;SDS011;45078;51.654;21.250;2022-07-23T06:22:57;9.45;;;6.22;;
59310;SDS011;45078;51.654;21.250;2022-07-23T06:25:23;13.05;;;6.07;;
59310;SDS011;45078;51.654;21.250;2022-07-23T06:27:49;9.77;;;6.25;;
59310;SDS011;45078;51.654;21.250;2022-07-23T06:30:15;9.35;;;6.25;;
59310;SDS011;45078;51.654;21.250;2022-07-23T06:32:42;16.10;;;6.43;;
59310;SDS011;45078;51.654;21.250;2022-07-23T06:35:09;9.48;;;5.72;;
59310;SDS011;45078;51.654;21.250;2022-07-23T06:37:34;11.15;;;6.32;;
59310;SDS011;45078;51.654;21.250;2022-07-23T06:40:01;10.38;;;6.25;;
59310;SDS011;45078;51.654;21.250;2022-07-23T06:42:27;11.00;;;6.55;;
59310;SDS011;45078;51.654;21.250;2022-07-23T06:44:53;11.05;;;6.38;;
59310;SDS011;45078;51.654;21.250;2022-07-23T06:47:19;10.30;;;5.57;;
59310;SDS011;45078;51.654;21.250;2022-07-23T06:49:44;10.73;;;5.38;;
59310;SDS011;45078;51.654;21.250;2022-07-23T06:52:10;8.65;;;6.03;;
59310;SDS011;45078;51.654;21.250;2022-07-23T06:54:36;9.57;;;5.60;;
59310;SDS011;45078;51.654;21.250;2022-07-23T06:57:02;10.60;;;6.10;;
59310;SDS011;45078;51.654;21.250;2022-07-23T06:59:28;9.65;;;5.28;;
59310;SDS011;45078;51.654;21.250;2022-07-23T07:01:54;9.00;;;5.70;;
59310;SDS011;45078;51.654;21.250;2022-07-23T07:04:20;9.18;;;5.57;;
59310;SDS011;45078;51.654;21.250;2022-07-23T07:06:46;10.02;;;5.90;;
59310;SDS011;45078;51.654;21.250;2022-07-23T07:09:12;9.20;;;5.38;;
59310;SDS011;45078;51.654;21.250;2022-07-23T07:11:40;15.00;;;5.50;;
59310;SDS011;45078;51.654;21.250;2022-07-23T07:14:06;8.23;;;5.45;;
59310;SDS011;45078;51.654;21.250;2022-07-23T07:16:32;12.48;;;5.35;;
59310;SDS011;45078;51.654;21.250;2022-07-23T07:18:58;6.85;;;4.97;;
59310;SDS011;45078;51.654;21.250;2022-07-23T07:21:24;8.55;;;5.55;;
59310;SDS011;45078;51.654;21.250;2022-07-23T07:23:50;12.60;;;6.05;;
59310;SDS011;45078;51.654;21.250;2022-07-23T07:26:15;7.32;;;5.47;;
59310;SDS011;45078;51.654;21.250;2022-07-23T07:28:41;9.85;;;5.40;;
59310;SDS011;45078;51.654;21.250;2022-07-23T07:31:07;7.70;;;6.05;;
59310;SDS011;45078;51.654;21.250;2022-07-23T07:33:33;8.13;;;5.60;;
59310;SDS011;45078;51.654;21.250;2022-07-23T07:35:59;7.25;;;5.00;;
59310;SDS011;45078;51.654;21.250;2022-07-23T07:38:25;8.63;;;5.20;;
59310;SDS011;45078;51.654;21.250;2022-07-23T07:40:51;8.43;;;5.57;;
59310;SDS011;45078;51.654;21.250;2022-07-23T07:43:17;9.07;;;4.85;;
59310;SDS011;45078;51.654;21.250;2022-07-23T07:45:43;7.07;;;4.25;;
59310;SDS011;45078;51.654;21.250;2022-07-23T07:48:09;7.05;;;4.20;;
59310;SDS011;45078;51.654;21.250;2022-07-23T07:50:35;8.25;;;5.10;;
59310;SDS011;45078;51.654;21.250;2022-07-23T07:53:00;7.20;;;4.63;;
59310;SDS011;45078;51.654;21.250;2022-07-23T07:55:26;7.65;;;4.95;;
59310;SDS011;45078;51.654;21.250;2022-07-23T07:57:53;6.65;;;4.13;;
59310;SDS011;45078;51.654;21.250;2022-07-23T08:00:19;7.32;;;4.75;;
59310;SDS011;45078;51.654;21.250;2022-07-23T08:02:52;6.65;;;4.47;;
59310;SDS011;45078;51.654;21.250;2022-07-23T08:05:22;6.95;;;4.82;;
59310;SDS011;45078;51.654;21.250;2022-07-23T08:07:50;9.63;;;4.93;;
59310;SDS011;45078;51.654;21.250;2022-07-23T08:10:16;7.22;;;4.30;;
59310;SDS011;45078;51.654;21.250;2022-07-23T08:12:46;6.95;;;4.38;;
59310;SDS011;45078;51.654;21.250;2022-07-23T08:15:17;7.85;;;4.80;;
59310;SDS011;45078;51.654;21.250;2022-07-23T08:17:45;10.60;;;4.85;;
59310;SDS011;45078;51.654;21.250;2022-07-23T08:20:12;6.57;;;4.43;;
59310;SDS011;45078;51.654;21.250;2022-07-23T08:25:28;6.45;;;4.38;;
59310;SDS011;45078;51.654;21.250;2022-07-23T08:28:00;6.05;;;3.85;;
59310;SDS011;45078;51.654;21.250;2022-07-23T08:30:27;10.05;;;4.38;;
59310;SDS011;45078;51.654;21.250;2022-07-23T08:32:58;5.82;;;4.10;;
59310;SDS011;45078;51.654;21.250;2022-07-23T08:35:34;7.15;;;4.45;;
59310;SDS011;45078;51.654;21.250;2022-07-23T08:38:02;7.90;;;3.40;;
59310;SDS011;45078;51.654;21.250;2022-07-23T08:40:31;5.00;;;3.08;;
59310;SDS011;45078;51.654;21.250;2022-07-23T08:42:58;6.20;;;3.42;;
59310;SDS011;45078;51.654;21.250;2022-07-23T08:45:26;4.75;;;3.17;;
59310;SDS011;45078;51.654;21.250;2022-07-23T08:47:53;7.13;;;3.88;;
59310;SDS011;45078;51.654;21.250;2022-07-23T08:50:21;6.63;;;4.28;;
59310;SDS011;45078;51.654;21.250;2022-07-23T08:52:48;5.63;;;3.63;;
59310;SDS011;45078;51.654;21.250;2022-07-23T08:55:16;5.53;;;4.07;;
59310;SDS011;45078;51.654;21.250;2022-07-23T08:57:43;5.80;;;4.00;;
59310;SDS011;45078;51.654;21.250;2022-07-23T09:00:09;7.78;;;4.30;;
59310;SDS011;45078;51.654;21.250;2022-07-23T09:02:39;6.78;;;4.45;;
59310;SDS011;45078;51.654;21.250;2022-07-23T09:05:08;5.68;;;4.00;;
59310;SDS011;45078;51.654;21.250;2022-07-23T09:07:36;8.52;;;4.10;;
59310;SDS011;45078;51.654;21.250;2022-07-23T09:10:04;5.82;;;4.18;;
59310;SDS011;45078;51.654;21.250;2022-07-23T09:12:34;6.30;;;4.05;;
59310;SDS011;45078;51.654;21.250;2022-07-23T09:15:05;5.13;;;3.60;;
59310;SDS011;45078;51.654;21.250;2022-07-23T09:17:36;12.15;;;4.45;;
59310;SDS011;45078;51.654;21.250;2022-07-23T09:20:11;11.07;;;4.32;;
59310;SDS011;45078;51.654;21.250;2022-07-23T09:22:46;6.25;;;4.10;;
59310;SDS011;45078;51.654;21.250;2022-07-23T09:27:47;5.47;;;3.72;;
59310;SDS011;45078;51.654;21.250;2022-07-23T09:30:25;7.22;;;4.60;;
59310;SDS011;45078;51.654;21.250;2022-07-23T09:38:23;7.63;;;4.15;;
59310;SDS011;45078;51.654;21.250;2022-07-23T09:43:35;6.47;;;4.45;;
59310;SDS011;45078;51.654;21.250;2022-07-23T09:48:47;7.85;;;4.45;;
59310;SDS011;45078;51.654;21.250;2022-07-23T09:51:14;6.55;;;4.10;;
59310;SDS011;45078;51.654;21.250;2022-07-23T09:53:58;6.60;;;4.55;;
59310;SDS011;45078;51.654;21.250;2022-07-23T09:56:24;5.43;;;4.07;;
59310;SDS011;45078;51.654;21.250;2022-07-23T09:58:53;5.38;;;3.92;;
59310;SDS011;45078;51.654;21.250;2022-07-23T10:01:31;5.70;;;4.07;;
59310;SDS011;45078;51.654;21.250;2022-07-23T10:03:58;6.50;;;4.30;;
59310;SDS011;45078;51.654;21.250;2022-07-23T10:06:26;5.10;;;3.88;;
59310;SDS011;45078;51.654;21.250;2022-07-23T10:08:54;6.18;;;4.22;;
59310;SDS011;45078;51.654;21.250;2022-07-23T10:11:23;6.03;;;4.00;;
59310;SDS011;45078;51.654;21.250;2022-07-23T10:13:50;8.27;;;4.13;;
59310;SDS011;45078;51.654;21.250;2022-07-23T10:16:23;7.72;;;4.18;;
59310;SDS011;45078;51.654;21.250;2022-07-23T10:18:49;6.38;;;4.30;;
59310;SDS011;45078;51.654;21.250;2022-07-23T10:21:30;5.65;;;4.05;;
59310;SDS011;45078;51.654;21.250;2022-07-23T10:29:55;7.28;;;4.20;;
59310;SDS011;45078;51.654;21.250;2022-07-23T10:41:06;6.47;;;3.70;;
59310;SDS011;45078;51.654;21.250;2022-07-23T10:43:32;8.85;;;4.55;;
59310;SDS011;45078;51.654;21.250;2022-07-23T10:49:17;7.13;;;3.65;;
59310;SDS011;45078;51.654;21.250;2022-07-23T10:52:26;7.43;;;4.20;;
59310;SDS011;45078;51.654;21.250;2022-07-23T10:57:23;5.78;;;3.90;;
59310;SDS011;45078;51.654;21.250;2022-07-23T11:02:32;6.57;;;3.60;;
59310;SDS011;45078;51.654;21.250;2022-07-23T11:05:00;7.07;;;4.00;;
59310;SDS011;45078;51.654;21.250;2022-07-23T11:07:30;8.48;;;3.97;;
59310;SDS011;45078;51.654;21.250;2022-07-23T11:09:56;6.28;;;4.15;;
59310;SDS011;45078;51.654;21.250;2022-07-23T11:15:01;5.35;;;4.00;;
59310;SDS011;45078;51.654;21.250;2022-07-23T11:17:28;6.90;;;3.97;;
59310;SDS011;45078;51.654;21.250;2022-07-23T11:25:11;4.95;;;3.95;;
59310;SDS011;45078;51.654;21.250;2022-07-23T11:27:50;5.05;;;3.83;;
59310;SDS011;45078;51.654;21.250;2022-07-23T11:32:55;6.65;;;3.53;;
59310;SDS011;45078;51.654;21.250;2022-07-23T11:35:44;5.90;;;3.85;;
59310;SDS011;45078;51.654;21.250;2022-07-23T11:38:17;6.28;;;3.80;;
59310;SDS011;45078;51.654;21.250;2022-07-23T11:40:48;5.47;;;3.95;;
59310;SDS011;45078;51.654;21.250;2022-07-23T11:43:16;7.43;;;4.05;;
59310;SDS011;45078;51.654;21.250;2022-07-23T11:45:47;8.95;;;4.43;;
59310;SDS011;45078;51.654;21.250;2022-07-23T11:48:22;6.30;;;3.72;;
59310;SDS011;45078;51.654;21.250;2022-07-23T11:50:49;5.97;;;3.75;;
59310;SDS011;45078;51.654;21.250;2022-07-23T11:53:30;8.32;;;3.78;;
59310;SDS011;45078;51.654;21.250;2022-07-23T11:56:03;5.75;;;4.30;;
59310;SDS011;45078;51.654;21.250;2022-07-23T11:58:33;5.90;;;4.00;;
59310;SDS011;45078;51.654;21.250;2022-07-23T12:00:59;6.43;;;3.70;;
59310;SDS011;45078;51.654;21.250;2022-07-23T12:03:25;7.25;;;4.15;;
59310;SDS011;45078;51.654;21.250;2022-07-23T12:05:55;5.35;;;3.80;;
59310;SDS011;45078;51.654;21.250;2022-07-23T12:08:22;5.30;;;3.42;;
59310;SDS011;45078;51.654;21.250;2022-07-23T12:10:48;6.53;;;4.28;;
59310;SDS011;45078;51.654;21.250;2022-07-23T12:13:15;5.55;;;4.13;;
59310;SDS011;45078;51.654;21.250;2022-07-23T12:15:44;11.77;;;4.47;;
59310;SDS011;45078;51.654;21.250;2022-07-23T12:18:13;5.35;;;3.83;;
59310;SDS011;45078;51.654;21.250;2022-07-23T12:20:42;5.35;;;3.90;;
59310;SDS011;45078;51.654;21.250;2022-07-23T12:23:10;6.65;;;3.90;;
59310;SDS011;45078;51.654;21.250;2022-07-23T12:25:39;5.80;;;3.47;;
59310;SDS011;45078;51.654;21.250;2022-07-23T12:28:08;5.53;;;3.88;;
59310;SDS011;45078;51.654;21.250;2022-07-23T12:30:38;6.82;;;4.32;;
59310;SDS011;45078;51.654;21.250;2022-07-23T12:33:15;6.32;;;3.97;;
59310;SDS011;45078;51.654;21.250;2022-07-23T12:36:00;5.80;;;3.90;;
59310;SDS011;45078;51.654;21.250;2022-07-23T12:38:36;7.60;;;3.88;;
59310;SDS011;45078;51.654;21.250;2022-07-23T12:41:04;4.95;;;3.30;;
59310;SDS011;45078;51.654;21.250;2022-07-23T12:43:31;7.60;;;3.95;;
59310;SDS011;45078;51.654;21.250;2022-07-23T12:46:05;9.57;;;3.80;;
59310;SDS011;45078;51.654;21.250;2022-07-23T12:48:33;7.00;;;4.18;;
59310;SDS011;45078;51.654;21.250;2022-07-23T12:51:05;6.45;;;3.97;;
59310;SDS011;45078;51.654;21.250;2022-07-23T12:53:38;5.93;;;3.90;;
59310;SDS011;45078;51.654;21.250;2022-07-23T12:56:21;5.97;;;4.10;;
59310;SDS011;45078;51.654;21.250;2022-07-23T13:01:27;5.00;;;3.83;;
59310;SDS011;45078;51.654;21.250;2022-07-23T13:04:08;6.78;;;3.40;;
59310;SDS011;45078;51.654;21.250;2022-07-23T13:06:46;8.25;;;3.83;;
59310;SDS011;45078;51.654;21.250;2022-07-23T13:09:15;5.10;;;3.80;;
59310;SDS011;45078;51.654;21.250;2022-07-23T13:11:43;7.50;;;3.80;;
59310;SDS011;45078;51.654;21.250;2022-07-23T13:14:10;6.43;;;3.78;;
59310;SDS011;45078;51.654;21.250;2022-07-23T13:16:38;6.03;;;4.15;;
59310;SDS011;45078;51.654;21.250;2022-07-23T13:19:04;7.60;;;3.78;;
59310;SDS011;45078;51.654;21.250;2022-07-23T13:21:31;5.13;;;3.92;;
59310;SDS011;45078;51.654;21.250;2022-07-23T13:23:58;7.68;;;3.78;;
59310;SDS011;45078;51.654;21.250;2022-07-23T13:26:24;5.97;;;4.03;;
59310;SDS011;45078;51.654;21.250;2022-07-23T13:28:51;5.28;;;3.65;;
59310;SDS011;45078;51.654;21.250;2022-07-23T13:31:17;5.60;;;3.60;;
59310;SDS011;45078;51.654;21.250;2022-07-23T13:33:44;5.38;;;3.67;;
59310;SDS011;45078;51.654;21.250;2022-07-23T13:36:10;6.28;;;3.85;;
59310;SDS011;45078;51.654;21.250;2022-07-23T13:38:36;5.10;;;3.63;;
59310;SDS011;45078;51.654;21.250;2022-07-23T13:41:02;6.18;;;4.03;;
59310;SDS011;45078;51.654;21.250;2022-07-23T13:43:28;5.53;;;4.05;;
59310;SDS011;45078;51.654;21.250;2022-07-23T13:45:56;5.85;;;3.55;;
59310;SDS011;45078;51.654;21.250;2022-07-23T13:48:22;8.85;;;3.42;;
59310;SDS011;45078;51.654;21.250;2022-07-23T13:50:48;7.28;;;4.13;;
59310;SDS011;45078;51.654;21.250;2022-07-23T13:53:16;5.57;;;3.88;;
59310;SDS011;45078;51.654;21.250;2022-07-23T13:55:43;5.20;;;3.58;;
59310;SDS011;45078;51.654;21.250;2022-07-23T13:58:10;7.45;;;4.05;;
59310;SDS011;45078;51.654;21.250;2022-07-23T14:00:38;14.48;;;4.28;;
59310;SDS011;45078;51.654;21.250;2022-07-23T14:03:06;6.65;;;3.60;;
59310;SDS011;45078;51.654;21.250;2022-07-23T14:05:32;5.57;;;3.58;;
59310;SDS011;45078;51.654;21.250;2022-07-23T14:07:59;6.88;;;3.50;;
59310;SDS011;45078;51.654;21.250;2022-07-23T14:10:25;5.78;;;3.80;;
59310;SDS011;45078;51.654;21.250;2022-07-23T14:12:51;5.93;;;3.90;;
59310;SDS011;45078;51.654;21.250;2022-07-23T14:15:21;5.60;;;4.07;;
59310;SDS011;45078;51.654;21.250;2022-07-23T14:17:47;9.32;;;3.75;;
59310;SDS011;45078;51.654;21.250;2022-07-23T14:20:13;4.97;;;3.55;;
59310;SDS011;45078;51.654;21.250;2022-07-23T14:22:40;5.05;;;3.50;;
59310;SDS011;45078;51.654;21.250;2022-07-23T14:25:06;6.00;;;3.78;;
59310;SDS011;45078;51.654;21.250;2022-07-23T14:27:33;4.43;;;3.35;;
59310;SDS011;45078;51.654;21.250;2022-07-23T14:30:00;5.03;;;3.83;;
59310;SDS011;45078;51.654;21.250;2022-07-23T14:32:26;7.85;;;3.58;;
59310;SDS011;45078;51.654;21.250;2022-07-23T14:34:52;6.82;;;3.70;;
59310;SDS011;45078;51.654;21.250;2022-07-23T14:37:18;5.90;;;3.95;;
59310;SDS011;45078;51.654;21.250;2022-07-23T14:39:44;6.22;;;4.35;;
59310;SDS011;45078;51.654;21.250;2022-07-23T14:42:11;4.70;;;3.45;;
59310;SDS011;45078;51.654;21.250;2022-07-23T14:44:38;6.32;;;3.72;;
59310;SDS011;45078;51.654;21.250;2022-07-23T14:47:04;4.32;;;3.53;;
59310;SDS011;45078;51.654;21.250;2022-07-23T14:49:31;6.47;;;3.50;;
59310;SDS011;45078;51.654;21.250;2022-07-23T14:51:58;5.60;;;3.80;;
59310;SDS011;45078;51.654;21.250;2022-07-23T14:54:24;4.35;;;3.30;;
59310;SDS011;45078;51.654;21.250;2022-07-23T14:56:52;5.45;;;3.72;;
59310;SDS011;45078;51.654;21.250;2022-07-23T14:59:19;6.68;;;3.95;;
59310;SDS011;45078;51.654;21.250;2022-07-23T15:01:45;6.72;;;3.85;;
59310;SDS011;45078;51.654;21.250;2022-07-23T15:04:10;6.00;;;3.95;;
59310;SDS011;45078;51.654;21.250;2022-07-23T15:06:36;7.65;;;4.22;;
59310;SDS011;45078;51.654;21.250;2022-07-23T15:09:04;5.93;;;4.05;;
59310;SDS011;45078;51.654;21.250;2022-07-23T15:11:30;5.95;;;4.22;;
59310;SDS011;45078;51.654;21.250;2022-07-23T15:13:58;6.13;;;4.40;;
59310;SDS011;45078;51.654;21.250;2022-07-23T15:16:27;8.38;;;4.20;;
59310;SDS011;45078;51.654;21.250;2022-07-23T15:18:54;7.78;;;4.22;;
59310;SDS011;45078;51.654;21.250;2022-07-23T15:21:20;7.50;;;4.40;;